Time;durP1;ratioP1;P1;durP2;ratioP2;P2;SDS_P1;SDS_P2;PMS_P1;PMS_P2;Temp;Humidity;BMP_temperature;BMP_pressure;BME280_temperature;BME280_humidity;BME280_pressure;Samples;Min_cycle;Max_cycle;Signal;HPM_P1;HPM_P2
2023/04/23 00:00:51;;;;;;;9.10;6.13;;;;;;;10.61;63.09;94597.00;4229820;28;20078;-60
2023/04/23 00:02:56;;;;;;;10.23;5.95;;;;;;;10.73;62.86;94586.19;4229301;27;20051;-60
2023/04/23 00:05:05;;;;;;;9.35;6.00;;;;;;;10.83;62.52;94586.84;4228501;28;20051;-59
2023/04/23 00:07:07;;;;;;;11.15;6.00;;;;;;;10.90;62.48;94590.44;4228180;28;20079;-60
2023/04/23 00:09:11;;;;;;;8.50;5.85;;;;;;;10.95;62.42;94588.19;4218837;28;20493;-61
2023/04/23 00:11:12;;;;;;;12.27;6.63;;;;;;;11.00;62.21;94587.69;4213582;28;20059;-59
2023/04/23 00:13:14;;;;;;;11.13;5.85;;;;;;;11.02;61.72;94583.91;4226298;28;20044;-59
2023/04/23 00:15:17;;;;;;;7.65;5.15;;;;;;;11.05;61.73;94586.19;4213698;28;20123;-60
2023/04/23 00:17:18;;;;;;;8.77;5.38;;;;;;;11.10;61.05;94593.59;4213284;28;20181;-59
2023/04/23 00:19:20;;;;;;;8.40;5.60;;;;;;;11.13;61.15;94590.63;4213410;28;20493;-61
2023/04/23 00:21:22;;;;;;;8.80;5.53;;;;;;;11.11;60.95;94592.59;4212534;28;20131;-62
2023/04/23 00:23:24;;;;;;;8.38;5.72;;;;;;;11.12;61.05;94588.16;4211721;28;20101;-59
2023/04/23 00:25:25;;;;;;;8.77;5.53;;;;;;;11.14;60.95;94586.19;4223272;28;20044;-61
2023/04/23 00:27:27;;;;;;;10.60;6.70;;;;;;;11.14;61.03;94586.19;4226685;28;20075;-61
2023/04/23 00:29:29;;;;;;;10.40;6.20;;;;;;;11.11;61.51;94584.72;4220799;28;20076;-59
2023/04/23 00:31:30;;;;;;;10.27;5.75;;;;;;;11.01;61.48;94579.66;4214683;28;20113;-60
2023/04/23 00:33:32;;;;;;;11.23;5.90;;;;;;;10.90;61.10;94592.25;4217140;28;20079;-60
2023/04/23 00:35:34;;;;;;;11.20;6.03;;;;;;;10.78;61.41;94586.53;4214900;28;20068;-60
2023/04/23 00:37:35;;;;;;;10.45;5.63;;;;;;;10.68;61.44;94585.88;4224669;28;20164;-60
2023/04/23 00:39:37;;;;;;;12.90;6.20;;;;;;;10.55;61.98;94588.97;4219309;28;20054;-59
2023/04/23 00:41:40;;;;;;;9.70;6.68;;;;;;;10.53;62.63;94594.34;4220544;28;20109;-60
2023/04/23 00:43:43;;;;;;;11.65;6.55;;;;;;;10.55;62.51;94592.38;4223661;28;20132;-59
2023/04/23 00:45:45;;;;;;;12.33;6.13;;;;;;;10.61;62.51;94588.31;4219243;28;20260;-60
2023/04/23 00:47:47;;;;;;;9.23;5.78;;;;;;;10.68;62.77;94596.34;4219793;28;20303;-63
2023/04/23 00:49:54;;;;;;;10.52;5.85;;;;;;;10.71;62.40;94581.13;4228657;27;20175;-60
2023/04/23 00:51:56;;;;;;;8.75;6.22;;;;;;;10.78;61.99;94586.53;4225130;28;20051;-60
2023/04/23 00:53:57;;;;;;;9.00;5.95;;;;;;;10.81;61.83;94586.19;4226917;28;20130;-62
2023/04/23 00:56:00;;;;;;;10.35;6.05;;;;;;;10.60;61.31;94597.97;4227294;28;20051;-59
2023/04/23 00:58:02;;;;;;;8.38;6.10;;;;;;;10.37;62.73;94586.47;4227030;28;20074;-58
2023/04/23 01:00:06;;;;;;;8.25;6.35;;;;;;;10.41;62.99;94587.78;4212661;28;20117;-61
2023/04/23 01:02:07;;;;;;;11.90;6.63;;;;;;;10.41;62.48;94595.63;4214076;28;20040;-60
2023/04/23 01:04:11;;;;;;;13.05;6.32;;;;;;;10.28;62.86;94590.81;4213468;28;20097;-62
2023/04/23 01:06:14;;;;;;;9.65;6.53;;;;;;;10.15;62.98;94586.06;4211580;28;20062;-59
2023/04/23 01:08:17;;;;;;;9.67;6.33;;;;;;;10.08;63.53;94594.69;4216530;28;20398;-59
2023/04/23 01:10:20;;;;;;;10.73;6.18;;;;;;;10.17;63.26;94591.13;4222457;28;20284;-60
2023/04/23 01:12:22;;;;;;;12.60;7.00;;;;;;;10.25;63.55;94588.53;4224496;28;20059;-60
2023/04/23 01:14:23;;;;;;;10.80;7.22;;;;;;;10.36;62.95;94588.25;4226964;28;20047;-59
2023/04/23 01:16:25;;;;;;;10.80;7.35;;;;;;;10.39;62.53;94587.94;4217464;28;20192;-59
2023/04/23 01:18:28;;;;;;;12.82;7.25;;;;;;;10.36;62.79;94592.69;4223286;28;20067;-62
2023/04/23 01:20:31;;;;;;;9.05;6.55;;;;;;;10.31;62.58;94587.13;4224717;28;20218;-61
2023/04/23 01:22:36;;;;;;;11.63;6.82;;;;;;;10.25;62.69;94591.97;4221014;28;20378;-59
2023/04/23 01:24:39;;;;;;;10.13;7.32;;;;;;;10.24;63.40;94592.16;4213919;28;20040;-60
2023/04/23 01:26:42;;;;;;;13.20;7.28;;;;;;;10.31;62.75;94592.34;4212001;28;20069;-60
2023/04/23 01:28:44;;;;;;;10.48;7.05;;;;;;;10.35;62.62;94588.44;4220883;28;20493;-61
2023/04/23 01:30:47;;;;;;;14.57;7.07;;;;;;;10.33;62.63;94588.59;4213206;28;20047;-60
2023/04/23 01:32:49;;;;;;;10.60;6.72;;;;;;;10.34;63.02;94584.97;4219707;28;20116;-59
2023/04/23 01:34:52;;;;;;;15.63;7.05;;;;;;;10.25;63.04;94591.16;4220974;28;20054;-60
2023/04/23 01:36:54;;;;;;;11.63;7.03;;;;;;;9.48;64.88;94595.56;4208043;28;20059;-61
2023/04/23 01:38:57;;;;;;;11.82;7.07;;;;;;;9.05;66.54;94592.03;4223109;28;20055;-59
2023/04/23 01:40:58;;;;;;;13.88;7.65;;;;;;;9.02;67.15;94590.53;4224771;28;20477;-59
2023/04/23 01:43:00;;;;;;;14.05;8.25;;;;;;;9.17;66.71;94593.41;4223869;28;20393;-61
2023/04/23 01:45:02;;;;;;;13.02;8.57;;;;;;;8.99;66.91;94596.88;4216274;28;20135;-61
2023/04/23 01:47:04;;;;;;;15.32;9.20;;;;;;;9.01;67.63;94600.19;4223115;28;20113;-59
2023/04/23 01:49:07;;;;;;;13.73;8.43;;;;;;;8.89;67.66;94598.75;4224069;28;20051;-58
2023/04/23 01:51:09;;;;;;;11.00;8.82;;;;;;;8.74;68.42;94597.66;4212019;28;20517;-60
2023/04/23 01:53:10;;;;;;;12.85;8.73;;;;;;;8.77;68.92;94599.97;4222640;28;20105;-60
2023/04/23 01:55:13;;;;;;;11.45;8.50;;;;;;;8.91;68.51;94596.81;4226529;28;20433;-60
2023/04/23 01:57:14;;;;;;;16.27;9.07;;;;;;;8.99;67.58;94596.88;4227209;28;20074;-61
2023/04/23 01:59:16;;;;;;;13.90;8.85;;;;;;;8.99;67.46;94602.13;4217295;28;20048;-61
2023/04/23 02:01:18;;;;;;;13.02;8.18;;;;;;;9.09;68.23;94606.41;4218373;28;20446;-61
2023/04/23 02:03:19;;;;;;;14.88;7.95;;;;;;;9.25;66.89;94603.09;4218425;28;20468;-61
2023/04/23 02:05:21;;;;;;;15.98;8.38;;;;;;;9.38;66.60;94598.31;4211021;28;20039;-61
2023/04/23 02:07:23;;;;;;;12.95;7.85;;;;;;;9.53;66.32;94601.97;4216546;28;20465;-60
2023/04/23 02:09:24;;;;;;;13.90;7.55;;;;;;;9.69;65.47;94603.84;4214733;28;20078;-61
2023/04/23 02:11:26;;;;;;;14.55;8.65;;;;;;;9.77;65.47;94603.09;4218615;28;20092;-59
2023/04/23 02:13:28;;;;;;;16.35;8.50;;;;;;;9.82;64.71;94606.84;4226874;28;20079;-59
2023/04/23 02:15:30;;;;;;;16.65;9.02;;;;;;;9.88;64.96;94602.81;4225803;28;20071;-60
2023/04/23 02:17:32;;;;;;;15.02;8.57;;;;;;;9.92;64.44;94600.69;4222728;28;20560;-61
2023/04/23 02:19:34;;;;;;;11.43;7.90;;;;;;;9.96;64.58;94605.47;4217771;28;20664;-61
2023/04/23 02:21:36;;;;;;;11.23;8.05;;;;;;;10.01;64.17;94610.22;4225054;28;20075;-61
2023/04/23 02:23:38;;;;;;;10.23;7.63;;;;;;;10.03;64.41;94603.03;4222523;28;20058;-60
2023/04/23 02:25:39;;;;;;;11.43;7.93;;;;;;;10.02;64.35;94604.00;4225986;28;20047;-61
2023/04/23 02:27:41;;;;;;;11.90;8.07;;;;;;;10.07;64.09;94599.13;4226274;28;20052;-60
2023/04/23 02:29:43;;;;;;;12.02;7.60;;;;;;;10.10;63.74;94608.44;4226267;28;20130;-60
2023/04/23 02:31:44;;;;;;;12.48;7.20;;;;;;;10.11;64.09;94600.44;4220015;28;20105;-60
2023/04/23 02:33:46;;;;;;;11.73;7.40;;;;;;;10.14;63.98;94610.59;4218739;28;20094;-59
2023/04/23 02:35:48;;;;;;;12.63;8.02;;;;;;;10.12;63.78;94607.31;4217342;28;20578;-61
2023/04/23 02:37:50;;;;;;;12.20;7.30;;;;;;;10.10;63.65;94604.03;4217040;28;20048;-60
2023/04/23 02:39:52;;;;;;;13.27;7.93;;;;;;;10.06;63.91;94607.94;4218150;28;20180;-61
2023/04/23 02:41:53;;;;;;;17.13;8.75;;;;;;;9.93;63.94;94607.56;4211660;28;20643;-62
2023/04/23 02:43:55;;;;;;;13.00;8.55;;;;;;;9.79;64.64;94599.34;4220686;28;20266;-59
2023/04/23 02:45:56;;;;;;;16.13;8.38;;;;;;;9.75;64.25;94610.28;4225808;28;20055;-60
2023/04/23 02:47:58;;;;;;;13.75;8.23;;;;;;;9.70;64.52;94602.06;4223010;28;20108;-58
2023/04/23 02:50:04;;;;;;;12.05;7.82;;;;;;;9.63;64.77;94602.66;4214056;28;20044;-59
2023/04/23 02:52:06;;;;;;;12.43;8.10;;;;;;;9.61;64.82;94609.03;4224787;28;20052;-59
2023/04/23 02:54:07;;;;;;;12.18;7.93;;;;;;;9.48;65.52;94603.41;4225252;28;20161;-61
2023/04/23 02:56:09;;;;;;;12.50;7.72;;;;;;;9.37;65.75;94607.09;4224003;28;20059;-60
2023/04/23 02:58:11;;;;;;;11.32;7.43;;;;;;;9.23;66.02;94616.34;4202965;28;20062;-62
2023/04/23 03:00:14;;;;;;;12.43;7.40;;;;;;;9.04;65.98;94606.88;4225047;28;20043;-60
2023/04/23 03:02:15;;;;;;;12.13;7.32;;;;;;;8.63;67.60;94614.38;4226552;28;20090;-61
2023/04/23 03:04:17;;;;;;;16.67;7.15;;;;;;;8.58;67.95;94614.81;4223840;28;20401;-61
2023/04/23 03:06:19;;;;;;;16.13;7.50;;;;;;;8.70;68.17;94609.38;4222477;28;20105;-59
2023/04/23 03:08:21;;;;;;;13.52;7.78;;;;;;;8.87;67.71;94605.94;4217057;28;20248;-60
2023/04/23 03:10:22;;;;;;;10.40;7.05;;;;;;;9.07;67.07;94617.03;4220836;28;20048;-59
2023/04/23 03:12:24;;;;;;;10.20;7.80;;;;;;;9.25;66.87;94616.16;4211169;28;20474;-59
2023/04/23 03:14:26;;;;;;;11.25;7.65;;;;;;;9.41;65.92;94609.25;4218168;28;20044;-58
2023/04/23 03:16:28;;;;;;;10.95;6.80;;;;;;;9.50;65.64;94615.34;4228126;28;20043;-61
2023/04/23 03:18:29;;;;;;;11.68;6.95;;;;;;;9.56;65.24;94613.91;4216110;28;20078;-60
2023/04/23 03:20:31;;;;;;;11.00;6.85;;;;;;;9.58;65.10;94615.41;4224470;28;20048;-60
2023/04/23 03:22:33;;;;;;;10.95;7.03;;;;;;;9.58;64.63;94619.81;4218304;28;20043;-59
2023/04/23 03:24:34;;;;;;;11.15;6.88;;;;;;;9.63;65.57;94620.16;4227128;28;20465;-59
2023/04/23 03:26:36;;;;;;;11.45;7.30;;;;;;;9.68;65.28;94615.31;4214229;28;20040;-59
2023/04/23 03:28:37;;;;;;;12.25;6.97;;;;;;;9.75;64.47;94623.34;4213926;28;20075;-59
2023/04/23 03:30:39;;;;;;;11.35;7.25;;;;;;;9.81;64.69;94615.69;4213558;28;20044;-61
2023/04/23 03:32:41;;;;;;;11.68;6.88;;;;;;;9.86;64.22;94617.03;4224316;28;20079;-59
2023/04/23 03:34:43;;;;;;;10.82;7.00;;;;;;;9.84;63.65;94620.59;4221845;28;20105;-60
2023/04/23 03:36:47;;;;;;;11.68;6.78;;;;;;;9.80;63.77;94615.84;4214461;28;20105;-60
2023/04/23 03:38:49;;;;;;;13.15;6.20;;;;;;;9.72;63.65;94621.03;4226478;28;20108;-61
2023/04/23 03:40:50;;;;;;;9.77;6.63;;;;;;;9.59;63.81;94627.53;4226332;28;20079;-60
2023/04/23 03:42:52;;;;;;;13.20;6.65;;;;;;;9.60;64.19;94628.34;4225929;28;20127;-59
2023/04/23 03:44:53;;;;;;;13.57;7.28;;;;;;;9.64;64.01;94624.44;4218523;28;20048;-59
2023/04/23 03:46:55;;;;;;;7.43;6.30;;;;;;;9.69;64.54;94624.78;4225443;27;20056;-59
2023/04/23 03:48:57;;;;;;;12.00;6.70;;;;;;;9.72;64.03;94623.66;4220584;28;20435;-58
2023/04/23 03:50:58;;;;;;;9.73;6.18;;;;;;;9.74;64.26;94627.75;4228945;28;20078;-58
2023/04/23 03:53:00;;;;;;;12.18;6.72;;;;;;;9.80;63.98;94621.88;4225740;28;20054;-61
2023/04/23 03:55:02;;;;;;;12.15;7.43;;;;;;;9.86;63.53;94632.72;4228890;28;20039;-58
2023/04/23 03:57:03;;;;;;;17.65;6.82;;;;;;;9.81;63.92;94634.00;4229340;28;20073;-60
2023/04/23 03:59:05;;;;;;;11.95;6.97;;;;;;;9.82;63.53;94633.00;4217957;28;20044;-61
2023/04/23 04:01:07;;;;;;;12.43;6.78;;;;;;;9.90;64.17;94631.44;4226462;28;20489;-59
2023/04/23 04:03:08;;;;;;;11.77;7.05;;;;;;;10.03;63.96;94634.44;4222504;28;20104;-61
2023/04/23 04:05:10;;;;;;;9.63;7.03;;;;;;;10.16;63.37;94640.03;4220928;28;20044;-60
2023/04/23 04:07:12;;;;;;;8.85;6.22;;;;;;;10.27;63.64;94638.13;4223477;28;20071;-60
2023/04/23 04:09:14;;;;;;;11.27;6.45;;;;;;;10.23;63.32;94646.28;4213055;28;20044;-59
2023/04/23 04:11:16;;;;;;;12.93;6.72;;;;;;;10.29;63.47;94649.25;4216737;28;20043;-60
2023/04/23 04:13:18;;;;;;;9.15;6.75;;;;;;;10.33;63.36;94646.19;4227465;28;20127;-62
2023/04/23 04:15:20;;;;;;;10.00;6.88;;;;;;;10.35;63.35;94643.44;4228180;28;20143;-60
2023/04/23 04:17:21;;;;;;;9.68;7.15;;;;;;;10.33;63.19;94640.16;4214834;28;20040;-60
2023/04/23 04:19:23;;;;;;;10.73;7.57;;;;;;;10.31;63.50;94648.16;4228235;28;20131;-58
2023/04/23 04:21:27;;;;;;;10.23;7.38;;;;;;;10.35;63.88;94641.63;4227603;28;20132;-63
2023/04/23 04:23:28;;;;;;;15.18;7.93;;;;;;;10.33;63.53;94645.38;4226337;28;20061;-60
2023/04/23 04:25:30;;;;;;;12.45;8.40;;;;;;;10.31;63.62;94655.19;4228283;28;20039;-62
2023/04/23 04:27:34;;;;;;;15.98;8.27;;;;;;;10.34;63.59;94647.81;4229002;28;20192;-62
2023/04/23 04:29:36;;;;;;;11.15;7.78;;;;;;;10.37;63.69;94651.94;4229348;27;20059;-60
2023/04/23 04:31:38;;;;;;;11.05;7.10;;;;;;;10.36;63.65;94650.28;4218474;28;20077;-62
2023/04/23 04:33:40;;;;;;;12.23;7.50;;;;;;;10.43;63.41;94659.97;4217229;28;20469;-61
2023/04/23 04:35:44;;;;;;;11.45;7.72;;;;;;;10.50;62.94;94654.94;4216192;28;20047;-60
2023/04/23 04:37:46;;;;;;;12.50;8.15;;;;;;;10.52;62.82;94649.50;4220011;28;20373;-62
2023/04/23 04:39:48;;;;;;;12.40;7.22;;;;;;;10.50;62.44;94654.94;4223383;28;20554;-61
2023/04/23 04:41:49;;;;;;;12.93;8.23;;;;;;;10.55;62.78;94651.81;4220301;28;20125;-61
2023/04/23 04:43:51;;;;;;;11.73;7.65;;;;;;;10.64;62.64;94658.72;4220648;28;20059;-61
2023/04/23 04:45:52;;;;;;;9.98;7.47;;;;;;;10.48;62.57;94661.31;4221027;28;20052;-62
2023/04/23 04:47:54;;;;;;;10.45;7.35;;;;;;;10.34;63.00;94662.72;4224405;28;20440;-61
2023/04/23 04:49:56;;;;;;;12.93;7.82;;;;;;;10.34;63.10;94658.28;4226177;28;20055;-60
2023/04/23 04:51:58;;;;;;;11.43;8.30;;;;;;;10.36;63.45;94663.38;4227281;28;20118;-60
2023/04/23 04:54:00;;;;;;;11.35;7.80;;;;;;;10.41;62.97;94664.56;4227882;28;20055;-60
2023/04/23 04:56:02;;;;;;;12.05;7.55;;;;;;;10.43;63.06;94662.59;4226081;28;20160;-62
2023/04/23 04:58:03;;;;;;;10.45;7.72;;;;;;;10.54;62.83;94671.97;4226658;28;20550;-61
2023/04/23 05:00:22;;;;;;;10.27;7.38;;;;;;;10.63;62.99;94668.38;4227667;28;20063;-62
2023/04/23 05:02:25;;;;;;;12.45;7.72;;;;;;;10.71;62.67;94670.22;4227802;28;20127;-62
2023/04/23 05:04:27;;;;;;;9.50;7.77;;;;;;;10.80;62.02;94671.03;4214611;28;20082;-61
2023/04/23 05:06:28;;;;;;;10.68;7.53;;;;;;;10.83;61.82;94668.09;4226470;28;20051;-64
2023/04/23 05:08:30;;;;;;;11.60;8.38;;;;;;;10.84;61.76;94680.19;4218704;28;20075;-61
2023/04/23 05:10:32;;;;;;;13.13;8.30;;;;;;;10.80;62.02;94668.44;4211365;28;20089;-59
2023/04/23 05:12:33;;;;;;;10.57;8.00;;;;;;;10.82;61.83;94666.47;4226085;28;20085;-61
2023/04/23 05:14:35;;;;;;;11.07;7.90;;;;;;;10.95;61.33;94672.06;4229310;28;20036;-61
2023/04/23 05:16:36;;;;;;;12.55;7.25;;;;;;;11.03;60.98;94668.59;4226786;28;20163;-61
2023/04/23 05:18:39;;;;;;;12.70;7.63;;;;;;;11.12;60.40;94677.28;4225378;28;20227;-60
2023/04/23 05:20:41;;;;;;;15.60;7.38;;;;;;;11.07;60.33;94669.91;4226819;28;20100;-60
2023/04/23 05:22:43;;;;;;;17.13;7.18;;;;;;;10.95;60.38;94671.22;4224066;28;20040;-60
2023/04/23 05:24:45;;;;;;;8.82;6.90;;;;;;;10.91;61.14;94670.72;4226088;28;20100;-62
2023/04/23 05:26:47;;;;;;;13.40;7.55;;;;;;;10.93;61.14;94676.63;4222748;28;20043;-63
2023/04/23 05:28:49;;;;;;;11.02;7.00;;;;;;;11.06;60.78;94673.53;4216188;28;20083;-62
2023/04/23 05:30:50;;;;;;;9.93;7.25;;;;;;;11.14;60.49;94676.16;4223562;28;20052;-60
2023/04/23 05:32:52;;;;;;;11.05;6.97;;;;;;;11.18;60.07;94672.22;4221353;28;20101;-61
2023/04/23 05:34:54;;;;;;;12.50;7.45;;;;;;;10.48;61.74;94677.84;4211851;28;20123;-62
2023/04/23 05:36:56;;;;;;;10.57;7.03;;;;;;;9.86;64.17;94674.59;4209528;28;20098;-60
2023/04/23 05:38:58;;;;;;;8.90;7.03;;;;;;;9.91;65.17;94677.53;4222759;28;20130;-62
2023/04/23 05:40:59;;;;;;;10.70;7.68;;;;;;;10.10;64.27;94672.09;4221668;28;20047;-62
2023/04/23 05:43:01;;;;;;;10.65;7.00;;;;;;;10.32;64.21;94683.81;4211523;28;20097;-61
2023/04/23 05:45:03;;;;;;;14.15;7.45;;;;;;;10.14;63.95;94677.84;4213605;28;20094;-62
2023/04/23 05:47:10;;;;;;;12.13;7.03;;;;;;;9.96;63.97;94683.97;4225711;28;20058;-63
2023/04/23 05:49:11;;;;;;;16.40;7.53;;;;;;;9.91;65.35;94685.41;4228095;28;20083;-62
2023/04/23 05:51:13;;;;;;;10.55;7.65;;;;;;;10.05;64.78;94680.41;4226622;28;20055;-60
2023/04/23 05:53:15;;;;;;;11.40;7.45;;;;;;;10.19;64.12;94692.06;4215743;28;20073;-61
2023/04/23 05:55:17;;;;;;;11.45;7.50;;;;;;;10.16;64.18;94681.94;4228210;28;20401;-60
2023/04/23 05:57:18;;;;;;;11.73;8.23;;;;;;;10.29;63.93;94689.38;4226293;28;20676;-62
2023/04/23 05:59:20;;;;;;;11.90;8.18;;;;;;;10.42;63.53;94692.38;4225602;28;20077;-62
2023/04/23 06:01:22;;;;;;;10.20;7.35;;;;;;;10.43;63.39;94691.41;4210866;28;20526;-61
2023/04/23 06:03:25;;;;;;;10.35;7.18;;;;;;;10.54;63.86;94687.69;4219768;28;20071;-61
2023/04/23 06:05:27;;;;;;;12.43;8.52;;;;;;;10.74;63.28;94692.66;4221632;28;20138;-62
2023/04/23 06:07:29;;;;;;;13.20;8.48;;;;;;;10.76;62.71;94688.06;4223066;28;20048;-60
2023/04/23 06:09:31;;;;;;;12.07;7.18;;;;;;;10.59;63.11;94689.81;4219961;28;20102;-61
2023/04/23 06:11:34;;;;;;;9.93;7.50;;;;;;;10.38;63.58;94692.84;4211509;28;20047;-61
2023/04/23 06:13:39;;;;;;;12.32;8.27;;;;;;;10.41;64.08;94689.91;4211529;28;20067;-61
2023/04/23 06:15:44;;;;;;;12.05;7.72;;;;;;;10.46;63.84;94687.66;4222432;28;20164;-62
2023/04/23 06:17:45;;;;;;;10.65;7.50;;;;;;;10.62;64.04;94686.88;4211479;28;20048;-63
2023/04/23 06:19:47;;;;;;;12.00;8.50;;;;;;;10.88;63.35;94680.72;4211643;28;20044;-63
2023/04/23 06:21:49;;;;;;;13.30;7.88;;;;;;;11.09;62.56;94681.06;4210654;28;20052;-61
2023/04/23 06:23:52;;;;;;;13.20;8.13;;;;;;;11.35;61.96;94677.47;4211177;28;20051;-62
2023/04/23 06:25:53;;;;;;;9.82;7.57;;;;;;;11.56;60.66;94672.53;4210428;28;20079;-61
2023/04/23 06:27:57;;;;;;;13.05;8.23;;;;;;;11.65;60.29;94683.84;4211436;28;20424;-63
2023/04/23 06:29:58;;;;;;;14.40;8.35;;;;;;;11.64;60.50;94675.16;4211086;28;20048;-61
2023/04/23 06:32:01;;;;;;;16.48;9.18;;;;;;;11.38;61.34;94680.59;4210901;28;20056;-63
2023/04/23 06:34:03;;;;;;;13.05;8.55;;;;;;;11.50;61.34;94681.06;4206434;28;20039;-63
2023/04/23 06:36:06;;;;;;;12.48;9.18;;;;;;;11.62;60.72;94677.13;4224054;28;20108;-63
2023/04/23 06:38:08;;;;;;;11.00;8.60;;;;;;;11.86;60.61;94672.84;4225649;28;20186;-63
2023/04/23 06:40:10;;;;;;;15.60;10.23;;;;;;;11.96;59.74;94680.53;4226098;28;20070;-61
2023/04/23 06:42:11;;;;;;;12.55;9.63;;;;;;;12.11;59.42;94678.88;4223877;28;20096;-62
2023/04/23 06:44:13;;;;;;;15.85;10.75;;;;;;;12.02;59.73;94675.47;4214959;28;20055;-62
2023/04/23 06:46:15;;;;;;;15.50;9.98;;;;;;;11.87;60.18;94683.16;4222327;28;20123;-63
2023/04/23 06:48:17;;;;;;;15.00;10.38;;;;;;;11.62;60.66;94679.75;4223204;28;20044;-60
2023/04/23 06:50:19;;;;;;;15.82;10.13;;;;;;;11.37;61.43;94686.00;4226616;28;20046;-61
2023/04/23 06:52:20;;;;;;;13.90;9.57;;;;;;;11.22;62.04;94681.41;4224789;28;20052;-61
2023/04/23 06:54:22;;;;;;;13.60;9.60;;;;;;;11.26;62.73;94684.53;4224823;28;20043;-61
2023/04/23 06:56:25;;;;;;;16.13;10.00;;;;;;;11.44;61.69;94676.47;4212352;28;20050;-62
2023/04/23 06:58:30;;;;;;;14.75;8.45;;;;;;;11.48;61.72;94673.34;4225477;28;20061;-61
2023/04/23 07:00:33;;;;;;;13.75;8.43;;;;;;;11.73;61.54;94677.78;4225100;28;20138;-63
2023/04/23 07:02:35;;;;;;;12.88;7.95;;;;;;;11.88;61.04;94671.69;4223038;28;20065;-62
2023/04/23 07:04:37;;;;;;;11.43;7.60;;;;;;;12.18;60.79;94671.94;4203467;28;20051;-64
2023/04/23 07:06:39;;;;;;;10.50;7.28;;;;;;;12.37;59.39;94670.75;4223708;28;20123;-61
2023/04/23 07:08:42;;;;;;;12.88;7.95;;;;;;;12.50;59.03;94673.63;4214427;28;20076;-62
2023/04/23 07:10:43;;;;;;;8.98;6.85;;;;;;;12.68;58.69;94670.75;4210450;28;20187;-63
2023/04/23 07:12:45;;;;;;;9.32;7.10;;;;;;;12.55;59.15;94678.38;4199161;28;20126;-61
2023/04/23 07:14:46;;;;;;;13.88;7.72;;;;;;;12.72;59.10;94678.28;4218127;28;20047;-63
2023/04/23 07:16:48;;;;;;;12.45;7.50;;;;;;;12.82;58.75;94670.97;4216633;28;20078;-63
2023/04/23 07:18:50;;;;;;;10.15;7.05;;;;;;;12.99;57.98;94669.06;4224796;28;20082;-63
2023/04/23 07:20:52;;;;;;;11.57;6.97;;;;;;;12.35;59.52;94671.91;4210354;28;20102;-64
2023/04/23 07:22:53;;;;;;;11.35;7.90;;;;;;;12.07;60.53;94672.31;4210246;28;20521;-64
2023/04/23 07:24:55;;;;;;;11.80;8.45;;;;;;;12.05;60.87;94675.09;4199988;28;20070;-64
2023/04/23 07:26:58;;;;;;;10.98;7.13;;;;;;;12.36;60.71;94666.47;4209207;28;20052;-63
2023/04/23 07:29:00;;;;;;;13.73;7.85;;;;;;;12.72;59.73;94665.16;4209784;28;20059;-62
2023/04/23 07:31:02;;;;;;;12.38;7.43;;;;;;;12.86;58.87;94667.88;4211312;28;20505;-62
2023/04/23 07:33:03;;;;;;;12.30;7.57;;;;;;;12.89;59.12;94661.44;4220183;28;20079;-64
2023/04/23 07:35:05;;;;;;;9.95;7.00;;;;;;;12.86;59.17;94667.03;4215789;28;20670;-63
2023/04/23 07:37:08;;;;;;;10.07;7.22;;;;;;;12.96;58.87;94664.19;4207867;28;20433;-63
2023/04/23 07:39:10;;;;;;;16.67;7.15;;;;;;;12.73;58.69;94664.97;4218395;28;20051;-63
2023/04/23 07:41:11;;;;;;;10.13;7.63;;;;;;;12.62;59.48;94673.25;4218148;28;20107;-64
2023/04/23 07:43:13;;;;;;;10.57;7.50;;;;;;;12.45;60.21;94667.25;4215428;28;20071;-63
2023/04/23 07:45:15;;;;;;;15.85;8.90;;;;;;;12.54;59.93;94665.38;4225564;28;20039;-63
2023/04/23 07:47:17;;;;;;;10.10;7.20;;;;;;;12.90;59.61;94665.69;4226410;28;20058;-63
2023/04/23 07:49:18;;;;;;;10.90;8.10;;;;;;;13.08;58.61;94670.69;4225004;28;20047;-60
2023/04/23 07:51:21;;;;;;;8.88;7.80;;;;;;;13.27;58.29;94666.75;4223068;28;20127;-61
2023/04/23 07:53:23;;;;;;;8.45;7.53;;;;;;;13.56;57.73;94663.41;4213630;28;20165;-62
2023/04/23 07:55:24;;;;;;;11.40;7.43;;;;;;;13.84;56.65;94655.75;4226224;28;20131;-61
2023/04/23 07:57:26;;;;;;;9.30;7.03;;;;;;;14.06;56.08;94661.13;4226141;28;20059;-61
2023/04/23 07:59:28;;;;;;;11.77;6.93;;;;;;;14.04;56.33;94665.75;4224525;28;20048;-62
2023/04/23 08:01:31;;;;;;;8.98;6.18;;;;;;;14.13;55.77;94665.50;4228556;28;20195;-62
2023/04/23 08:03:33;;;;;;;11.38;6.97;;;;;;;14.26;55.67;94661.38;4229922;28;20043;-62
2023/04/23 08:05:37;;;;;;;8.50;6.85;;;;;;;14.37;55.26;94666.22;4216802;28;20055;-64
2023/04/23 08:07:39;;;;;;;10.63;6.95;;;;;;;14.28;55.38;94662.84;4224719;28;20050;-59
2023/04/23 08:09:41;;;;;;;9.50;6.45;;;;;;;14.31;54.48;94667.75;4213582;28;20048;-62
2023/04/23 08:11:43;;;;;;;8.13;6.32;;;;;;;14.01;55.56;94658.22;4214047;28;20048;-63
2023/04/23 08:13:44;;;;;;;7.93;6.35;;;;;;;14.05;55.25;94660.31;4226188;28;20169;-63
2023/04/23 08:15:47;;;;;;;7.32;6.28;;;;;;;13.96;54.85;94653.50;4224688;28;20051;-61
2023/04/23 08:17:49;;;;;;;10.02;6.70;;;;;;;13.83;55.13;94663.81;4212742;28;20101;-60
2023/04/23 08:19:51;;;;;;;11.18;6.95;;;;;;;13.89;55.20;94653.38;4211952;28;20048;-61
2023/04/23 08:21:52;;;;;;;9.27;6.70;;;;;;;13.72;55.27;94657.19;4224323;28;20062;-63
2023/04/23 08:23:54;;;;;;;12.15;7.68;;;;;;;13.56;55.98;94657.34;4227660;28;20055;-62
2023/04/23 08:25:56;;;;;;;13.13;6.90;;;;;;;13.61;56.31;94647.91;4221722;28;20044;-60
2023/04/23 08:27:58;;;;;;;9.95;7.18;;;;;;;13.61;56.25;94654.97;4222312;28;20044;-60
2023/04/23 08:29:59;;;;;;;10.00;7.00;;;;;;;13.68;55.57;94650.63;4226632;28;20051;-61
2023/04/23 08:32:01;;;;;;;16.38;7.03;;;;;;;13.58;55.89;94650.09;4216995;28;20047;-60
2023/04/23 08:34:03;;;;;;;13.75;7.32;;;;;;;13.30;56.91;94645.38;4220071;28;20055;-62
2023/04/23 08:36:05;;;;;;;9.77;7.05;;;;;;;13.44;56.47;94643.78;4217262;28;20044;-62
2023/04/23 08:38:06;;;;;;;11.57;7.90;;;;;;;13.65;55.99;94643.09;4210809;28;20781;-62
2023/04/23 08:40:08;;;;;;;9.93;7.15;;;;;;;13.89;55.61;94642.84;4213941;28;20072;-61
2023/04/23 08:42:17;;;;;;;9.95;7.45;;;;;;;14.28;55.56;94644.41;4219693;28;20039;-62
2023/04/23 08:44:22;;;;;;;10.38;7.68;;;;;;;14.43;54.57;94638.28;4222783;28;20610;-62
2023/04/23 08:46:24;;;;;;;10.65;7.30;;;;;;;14.61;54.53;94637.94;4227700;28;20507;-63
2023/04/23 08:48:27;;;;;;;10.45;7.13;;;;;;;14.79;53.85;94633.06;4226760;28;20713;-62
2023/04/23 08:50:29;;;;;;;22.08;12.95;;;;;;;14.88;53.04;94637.22;4228173;28;20055;-61
2023/04/23 08:52:33;;;;;;;9.43;7.83;;;;;;;14.82;52.71;94624.78;4227117;28;20130;-61
2023/04/23 08:54:36;;;;;;;12.98;7.38;;;;;;;14.46;53.23;94627.41;4225128;28;20046;-61
2023/04/23 08:56:39;;;;;;;11.15;7.25;;;;;;;14.49;53.36;94625.19;4227248;28;20039;-60
2023/04/23 08:58:40;;;;;;;10.27;7.30;;;;;;;14.76;53.52;94622.91;4226390;28;20472;-62
2023/04/23 09:00:42;;;;;;;8.88;6.50;;;;;;;15.08;51.79;94629.53;4227438;28;20072;-62
2023/04/23 09:02:46;;;;;;;9.35;6.70;;;;;;;15.20;51.37;94631.66;4224481;28;20052;-63
2023/04/23 09:04:48;;;;;;;;;;;;;;;15.08;50.70;94618.97;4218013;28;20097;-61
2023/04/23 09:06:52;;;;;;;7.45;6.30;;;;;;;15.17;50.61;94617.00;4226638;28;19927;-62
2023/04/23 09:08:54;;;;;;;9.30;6.47;;;;;;;15.21;51.27;94620.06;4214896;28;20052;-63
2023/04/23 09:10:59;;;;;;;13.13;7.47;;;;;;;15.01;51.08;94630.44;4212221;28;20089;-60
2023/04/23 09:13:01;;;;;;;18.73;7.00;;;;;;;14.77;51.64;94619.25;4218609;28;20048;-61
2023/04/23 09:15:09;;;;;;;13.85;6.95;;;;;;;14.80;52.02;94615.41;4219182;28;20143;-61
2023/04/23 09:17:11;;;;;;;10.10;7.22;;;;;;;15.03;52.00;94618.69;4224778;28;20051;-61
2023/04/23 09:19:13;;;;;;;9.90;7.13;;;;;;;15.28;51.10;94613.03;4212120;28;20047;-64
2023/04/23 09:21:14;;;;;;;9.10;6.65;;;;;;;15.41;51.18;94607.06;4211703;28;20048;-62
2023/04/23 09:23:21;;;;;;;11.07;7.55;;;;;;;15.45;50.30;94606.47;4210084;28;20101;-61
2023/04/23 09:25:23;;;;;;;10.13;6.80;;;;;;;15.79;50.51;94615.50;4211118;28;20124;-62
2023/04/23 09:27:25;;;;;;;10.13;6.35;;;;;;;15.77;49.36;94606.97;4212767;28;20601;-62
2023/04/23 09:29:27;;;;;;;9.07;6.75;;;;;;;15.69;50.09;94609.72;4219676;28;20117;-61
2023/04/23 09:31:29;;;;;;;11.93;6.50;;;;;;;15.80;49.34;94603.91;4216962;28;20124;-62